Terminal Aerodrome Forecast
Issued by NWS

Home | Current Version | Previous Version | Text Only | Print | Product List | Glossary On
Versions: 1 2 3 4 5 6 7 8 9 10 11 12 13 14 15 16
781
FTAK31 PAJN 122352
TAFAGY
TAF
PAGY 122352Z 1300/1324 21010G20KT P6SM -SHRA BKN040 OVC050
     FM130600 21006KT P6SM -SHRA OVC040
     FM131000 VRB03KT P6SM VCSH OVC050
     FM131700 04006KT P6SM OVC060
     FM132100 04005KT P6SM VCSH OVC050
      AMD LTD TO CLD VIS AND WIND=

USA.gov is the U.S. government's official web portal to all federal, state and local government web resources and services.